| time (UTC) | temp F | wind direction | speed knots | gust knots | rain 1hr in | rain 24hr in | rain mn in | humidity % | barometer mb |
| 20260504175053 | 70 | 235 | 0.0 | 14.8 | 0.00 | 0.00 | 0.00 | 38 | 1010.6 |
| 20260504174551 | 70 | 212 | 1.7 | 10.4 | 0.00 | 0.00 | 0.00 | 41 | 1010.5 |
| 20260504174003 | 70 | 115 | 3.5 | 10.4 | 0.00 | 0.00 | 0.00 | 39 | 1010.8 |
| 20260504173521 | 70 | 179 | 0.9 | 10.4 | 0.00 | 0.00 | 0.00 | 39 | 1010.7 |
| 20260504173038 | 70 | 247 | 1.7 | 10.4 | 0.00 | 0.00 | 0.00 | 39 | 1010.7 |
| 20260504172550 | 69 | 107 | 0.9 | 7.0 | 0.00 | 0.00 | 0.00 | 40 | 1010.7 |
| 20260504172054 | 69 | 180 | 0.0 | 12.2 | 0.00 | 0.00 | 0.00 | 41 | 1010.8 |
| 20260504171553 | 69 | 146 | 3.5 | 13.0 | 0.00 | 0.00 | 0.00 | 39 | 1011.0 |
| 20260504171005 | 69 | 213 | 0.9 | 9.6 | 0.00 | 0.00 | 0.00 | 42 | 1011.1 |
| 20260504170518 | 68 | 177 | 0.9 | 9.6 | 0.00 | 0.00 | 0.00 | 41 | 1011.1 |
| 20260504151031 | 65 | 157 | 1.7 | 9.6 | 0.00 | 0.00 | 0.00 | 51 | 1012.4 |
| 20260504150545 | 65 | 148 | 0.9 | 7.0 | 0.00 | 0.00 | 0.00 | 50 | 1012.4 |
| 20260504141042 | 62 | 159 | 0.9 | 7.0 | 0.00 | 0.00 | 0.00 | 60 | 1012.6 |
| 20260504140553 | 61 | 151 | 0.9 | 7.8 | 0.00 | 0.00 | 0.00 | 60 | 1012.6 |
| 20260504140103 | 61 | 100 | 0.9 | 7.8 | 0.00 | 0.00 | 0.00 | 60 | 1012.7 |
| 20260504130604 | 59 | 154 | 0.0 | 6.1 | 0.00 | 0.00 | 0.00 | 64 | 1013.2 |
| 20260504110544 | 47 | 154 | 0.0 | 0.0 | 0.00 | 0.00 | 0.00 | 82 | 1014.1 |
| 20260504100525 | 47 | 190 | 0.0 | 4.3 | 0.00 | 0.00 | 0.00 | 77 | 1014.1 |
| 20260504081549 | 49 | 153 | 0.0 | 1.7 | 0.00 | 0.00 | 0.00 | 71 | 1013.7 |
| 20260504081005 | 48 | 188 | 0.0 | 0.0 | 0.00 | 0.00 | 0.00 | 71 | 1013.7 |
| 20260504080520 | 48 | 159 | 0.0 | 1.7 | 0.00 | 0.00 | 0.00 | 71 | 1013.8 |
| 20260504050556 | 47 | 167 | 0.0 | 1.7 | 0.00 | 0.00 | 0.00 | 67 | 1013.4 |
| 20260504050113 | 46 | 166 | 0.0 | 1.7 | 0.00 | 0.00 | 0.00 | 67 | 1013.4 |
| 20260504045600 | 46 | 167 | 0.0 | 0.0 | 0.00 | 0.00 | 0.00 | 67 | 1013.4 |
| 20260504045015 | 46 | 167 | 0.0 | 0.0 | 0.00 | 0.00 | 0.00 | 68 | 1013.3 |
| 20260504044535 | 46 | 167 | 0.0 | 0.0 | 0.00 | 0.00 | 0.00 | 68 | 1013.3 |
| 20260504044047 | 46 | 167 | 0.0 | 0.0 | 0.00 | 0.00 | 0.00 | 67 | 1013.2 |
| 20260504043604 | 46 | 167 | 0.0 | 0.0 | 0.00 | 0.00 | 0.00 | 67 | 1013.2 |
| 20260504043016 | 47 | 167 | 0.0 | 0.0 | 0.00 | 0.00 | 0.00 | 65 | 1013.1 |
| 20260504042533 | 47 | 167 | 0.0 | 0.0 | 0.00 | 0.00 | 0.00 | 64 | 1013.0 |
| 20260504042049 | 47 | 167 | 0.0 | 0.0 | 0.00 | 0.00 | 0.00 | 64 | 1013.0 |
| 20260504041553 | 47 | 167 | 0.0 | 0.0 | 0.00 | 0.00 | 0.00 | 64 | 1013.0 |
| 20260504041100 | 47 | 167 | 0.0 | 0.0 | 0.00 | 0.00 | 0.00 | 64 | 1012.9 |
| 20260504040559 | 47 | 167 | 0.0 | 0.0 | 0.00 | 0.00 | 0.00 | 64 | 1012.9 |
| 20260504040016 | 47 | 167 | 0.0 | 0.0 | 0.00 | 0.00 | 0.00 | 63 | 1012.9 |
| 20260504035532 | 47 | 167 | 0.0 | 0.0 | 0.00 | 0.00 | 0.00 | 63 | 1012.8 |
| 20260504035044 | 47 | 167 | 0.0 | 0.0 | 0.00 | 0.00 | 0.00 | 63 | 1012.8 |
| 20260504034615 | 47 | 168 | 0.0 | 0.0 | 0.00 | 0.00 | 0.00 | 63 | 1012.8 |
| 20260504034001 | 47 | 167 | 0.0 | 0.0 | 0.00 | 0.00 | 0.00 | 64 | 1012.8 |
| 20260504033504 | 47 | 167 | 0.0 | 0.0 | 0.00 | 0.00 | 0.00 | 63 | 1012.8 |
| 20260504033020 | 47 | 168 | 0.0 | 0.0 | 0.00 | 0.00 | 0.00 | 63 | 1012.7 |
| 20260504032540 | 47 | 168 | 0.0 | 0.0 | 0.00 | 0.00 | 0.00 | 63 | 1012.7 |
| 20260504032053 | 47 | 168 | 0.0 | 0.9 | 0.00 | 0.00 | 0.00 | 63 | 1012.6 |
| 20260504031507 | 47 | 168 | 0.0 | 0.9 | 0.00 | 0.00 | 0.00 | 62 | 1012.6 |
| 20260504031023 | 48 | 167 | 0.0 | 0.9 | 0.00 | 0.00 | 0.00 | 63 | 1012.6 |
| 20260504030541 | 48 | 167 | 0.0 | 0.0 | 0.00 | 0.00 | 0.00 | 61 | 1012.6 |
| 20260504030114 | 48 | 167 | 0.0 | 0.0 | 0.00 | 0.00 | 0.00 | 61 | 1012.7 |
| 20260504025512 | 48 | 167 | 0.0 | 0.0 | 0.00 | 0.00 | 0.00 | 61 | 1012.7 |
| 20260504025029 | 48 | 168 | 0.0 | 0.0 | 0.00 | 0.00 | 0.00 | 61 | 1012.7 |
| 20260504024549 | 48 | 167 | 0.0 | 0.0 | 0.00 | 0.00 | 0.00 | 61 | 1012.7 |
| 20260504024101 | 49 | 167 | 0.0 | 0.0 | 0.00 | 0.00 | 0.00 | 60 | 1012.7 |
| 20260504023502 | 49 | 167 | 0.0 | 0.0 | 0.00 | 0.00 | 0.00 | 59 | 1012.7 |
| 20260504023019 | 49 | 167 | 0.0 | 0.9 | 0.00 | 0.00 | 0.00 | 59 | 1012.7 |
| 20260504022535 | 49 | 167 | 0.0 | 1.7 | 0.00 | 0.00 | 0.00 | 58 | 1012.7 |
| 20260504022050 | 49 | 167 | 0.0 | 1.7 | 0.00 | 0.00 | 0.00 | 57 | 1012.7 |
| 20260504021502 | 50 | 168 | 0.0 | 0.0 | 0.00 | 0.00 | 0.00 | 57 | 1012.6 |
| 20260504021019 | 50 | 168 | 0.0 | 1.7 | 0.00 | 0.00 | 0.00 | 57 | 1012.6 |
| 20260504020537 | 50 | 169 | 0.0 | 1.7 | 0.00 | 0.00 | 0.00 | 55 | 1012.6 |
| 20260504020040 | 50 | 169 | 0.0 | 0.9 | 0.00 | 0.00 | 0.00 | 55 | 1012.6 |
| 20260504015557 | 51 | 168 | 0.0 | 0.0 | 0.00 | 0.00 | 0.00 | 55 | 1012.7 |
| 20260504015100 | 51 | 169 | 0.0 | 0.0 | 0.00 | 0.00 | 0.00 | 54 | 1012.6 |
| 20260504014602 | 51 | 169 | 0.0 | 0.0 | 0.00 | 0.00 | 0.00 | 55 | 1012.6 |
| 20260504014020 | 52 | 169 | 0.0 | 0.0 | 0.00 | 0.00 | 0.00 | 53 | 1012.4 |
| 20260504013531 | 52 | 169 | 0.0 | 0.0 | 0.00 | 0.00 | 0.00 | 52 | 1012.5 |
| 20260504013050 | 52 | 169 | 0.0 | 0.9 | 0.00 | 0.00 | 0.00 | 52 | 1012.4 |
| 20260504012550 | 51 | 166 | 0.0 | 0.9 | 0.00 | 0.00 | 0.00 | 52 | 1012.4 |
| 20260504012053 | 51 | 166 | 0.0 | 0.0 | 0.00 | 0.00 | 0.00 | 53 | 1012.3 |
| 20260504011556 | 51 | 166 | 0.0 | 2.6 | 0.00 | 0.00 | 0.00 | 53 | 1012.2 |
| 20260504011012 | 51 | 166 | 0.0 | 2.6 | 0.00 | 0.00 | 0.00 | 53 | 1012.2 |
| 20260504010526 | 52 | 194 | 0.0 | 1.7 | 0.00 | 0.00 | 0.00 | 54 | 1012.1 |
| 20260504010044 | 52 | 194 | 0.0 | 1.7 | 0.00 | 0.00 | 0.00 | 52 | 1012.0 |
| 20260504005600 | 53 | 194 | 0.0 | 1.7 | 0.00 | 0.00 | 0.00 | 51 | 1011.9 |
| 20260504005014 | 54 | 194 | 0.0 | 0.9 | 0.00 | 0.00 | 0.00 | 49 | 1011.8 |
| 20260504004530 | 54 | 194 | 0.0 | 0.9 | 0.00 | 0.00 | 0.00 | 46 | 1011.7 |
| 20260504004047 | 55 | 194 | 0.0 | 0.9 | 0.00 | 0.00 | 0.00 | 45 | 1011.7 |
| 20260504003501 | 55 | 194 | 0.0 | 0.9 | 0.00 | 0.00 | 0.00 | 44 | 1011.7 |
| 20260504003003 | 56 | 194 | 0.0 | 0.0 | 0.00 | 0.00 | 0.00 | 44 | 1011.5 |
| 20260504002524 | 56 | 194 | 0.0 | 0.0 | 0.00 | 0.00 | 0.00 | 44 | 1011.5 |
| 20260504002036 | 56 | 194 | 0.0 | 0.0 | 0.00 | 0.00 | 0.00 | 43 | 1011.4 |
| 20260504001553 | 56 | 194 | 0.0 | 0.0 | 0.00 | 0.00 | 0.00 | 42 | 1011.3 |
| 20260504001007 | 57 | 194 | 0.0 | 1.7 | 0.00 | 0.00 | 0.00 | 41 | 1011.3 |
| 20260504000523 | 57 | 194 | 0.0 | 1.7 | 0.00 | 0.00 | 0.00 | 41 | 1011.4 |
| 20260504000047 | 57 | 195 | 0.0 | 1.7 | 0.00 | 0.00 | 0.00 | 41 | 1011.4 |
| 20260503235555 | 57 | 194 | 0.0 | 2.6 | 0.00 | 0.00 | 0.00 | 40 | 1011.3 |
| 20260503235057 | 58 | 179 | 0.0 | 1.7 | 0.00 | 0.00 | 0.00 | 39 | 1011.3 |
| 20260503234604 | 58 | 173 | 0.0 | 0.9 | 0.00 | 0.00 | 0.00 | 39 | 1011.2 |
| 20260503234014 | 58 | 173 | 0.0 | 3.5 | 0.00 | 0.00 | 0.00 | 39 | 1011.1 |
| 20260503233534 | 58 | 171 | 0.0 | 4.3 | 0.00 | 0.00 | 0.00 | 39 | 1011.0 |
| 20260503233047 | 59 | 254 | 0.9 | 4.3 | 0.00 | 0.00 | 0.00 | 38 | 1010.9 |
| 20260503232500 | 59 | 191 | 0.0 | 3.5 | 0.00 | 0.00 | 0.00 | 38 | 1010.9 |
| 20260503232017 | 59 | 206 | 0.0 | 5.2 | 0.00 | 0.00 | 0.00 | 37 | 1010.9 |
| 20260503231533 | 59 | 181 | 0.0 | 4.3 | 0.00 | 0.00 | 0.00 | 37 | 1010.8 |
| 20260503231050 | 60 | 248 | 0.0 | 4.3 | 0.00 | 0.00 | 0.00 | 37 | 1010.8 |
| 20260503230553 | 60 | 220 | 0.0 | 3.5 | 0.00 | 0.00 | 0.00 | 36 | 1010.8 |
| 20260503230056 | 60 | 230 | 0.9 | 3.5 | 0.00 | 0.00 | 0.00 | 36 | 1010.8 |
| 20260503225503 | 60 | 198 | 0.0 | 4.3 | 0.00 | 0.00 | 0.00 | 36 | 1010.8 |
| 20260503225023 | 60 | 273 | 0.9 | 4.3 | 0.00 | 0.00 | 0.00 | 35 | 1010.8 |
| 20260503224537 | 60 | 263 | 0.9 | 5.2 | 0.00 | 0.00 | 0.00 | 35 | 1010.9 |
| 20260503224054 | 60 | 219 | 0.0 | 6.1 | 0.00 | 0.00 | 0.00 | 36 | 1010.8 |
| 20260503223557 | 60 | 225 | 0.9 | 6.1 | 0.00 | 0.00 | 0.00 | 36 | 1010.8 |
| 20260503223100 | 60 | 248 | 0.0 | 3.5 | 0.00 | 0.00 | 0.00 | 36 | 1010.7 |
| 20260503222601 | 60 | 197 | 0.9 | 7.0 | 0.00 | 0.00 | 0.00 | 35 | 1010.7 |
| 20260503222015 | 60 | 234 | 0.0 | 6.1 | 0.00 | 0.00 | 0.00 | 35 | 1010.7 |
| 20260503221528 | 60 | 194 | 0.9 | 3.5 | 0.00 | 0.00 | 0.00 | 36 | 1010.8 |
| 20260503221046 | 60 | 215 | 0.0 | 6.1 | 0.00 | 0.00 | 0.00 | 36 | 1010.7 |
| 20260503220603 | 60 | 179 | 1.7 | 8.7 | 0.00 | 0.00 | 0.00 | 35 | 1010.7 |
| 20260503220021 | 60 | 204 | 0.0 | 6.1 | 0.00 | 0.00 | 0.00 | 36 | 1010.7 |
| 20260503215535 | 60 | 246 | 1.7 | 7.0 | 0.00 | 0.00 | 0.00 | 35 | 1010.8 |
| 20260503215050 | 60 | 224 | 0.9 | 7.0 | 0.00 | 0.00 | 0.00 | 35 | 1010.8 |
| 20260503214553 | 60 | 207 | 1.7 | 10.4 | 0.00 | 0.00 | 0.00 | 35 | 1010.7 |
| 20260503214056 | 60 | 261 | 4.3 | 10.4 | 0.00 | 0.00 | 0.00 | 35 | 1010.8 |
| 20260503213510 | 60 | 249 | 0.9 | 5.2 | 0.00 | 0.00 | 0.00 | 36 | 1010.7 |
| 20260503213026 | 60 | 289 | 0.0 | 9.6 | 0.00 | 0.00 | 0.00 | 36 | 1010.6 |
| 20260503212544 | 59 | 224 | 2.6 | 13.0 | 0.00 | 0.00 | 0.00 | 36 | 1010.7 |
| 20260503212100 | 60 | 257 | 2.6 | 13.0 | 0.00 | 0.00 | 0.00 | 35 | 1010.8 |
| 20260503211514 | 60 | 157 | 0.9 | 4.3 | 0.00 | 0.00 | 0.00 | 36 | 1010.6 |
| 20260503211030 | 60 | 271 | 1.7 | 10.4 | 0.00 | 0.00 | 0.00 | 35 | 1010.7 |
| 20260503210546 | 60 | 248 | 1.7 | 8.7 | 0.00 | 0.00 | 0.00 | 35 | 1010.7 |
| 20260503210049 | 59 | 220 | 2.6 | 9.6 | 0.00 | 0.00 | 0.00 | 35 | 1010.8 |
| 20260503205552 | 59 | 232 | 3.5 | 13.0 | 0.00 | 0.00 | 0.00 | 35 | 1010.6 |
| 20260503205006 | 59 | 232 | 2.6 | 15.6 | 0.00 | 0.00 | 0.00 | 36 | 1010.7 |
| 20260503204520 | 59 | 264 | 3.5 | 8.7 | 0.00 | 0.00 | 0.00 | 35 | 1010.8 |
| 20260503204036 | 59 | 228 | 1.7 | 7.8 | 0.00 | 0.00 | 0.00 | 36 | 1010.8 |
| 20260503203538 | 59 | 236 | 1.7 | 7.8 | 0.00 | 0.00 | 0.00 | 36 | 1010.8 |
| 20260503203057 | 58 | 213 | 0.9 | 7.8 | 0.00 | 0.00 | 0.00 | 37 | 1010.8 |
| 20260503202557 | 58 | 252 | 1.7 | 12.2 | 0.00 | 0.00 | 0.00 | 36 | 1010.9 |
| 20260503202011 | 58 | 232 | 0.9 | 11.3 | 0.00 | 0.00 | 0.00 | 37 | 1010.8 |
| 20260503201527 | 58 | 227 | 1.7 | 10.4 | 0.00 | 0.00 | 0.00 | 36 | 1010.9 |
| 20260503201047 | 58 | 217 | 2.6 | 10.4 | 0.00 | 0.00 | 0.00 | 37 | 1010.9 |
| 20260503200545 | 59 | 209 | 0.0 | 9.6 | 0.00 | 0.00 | 0.00 | 36 | 1010.9 |
| 20260503200049 | 59 | 293 | 2.6 | 11.3 | 0.00 | 0.00 | 0.00 | 36 | 1010.9 |
| 20260503195551 | 59 | 243 | 2.6 | 11.3 | 0.00 | 0.00 | 0.00 | 36 | 1010.9 |
| 20260503195004 | 58 | 281 | 0.0 | 7.8 | 0.00 | 0.00 | 0.00 | 37 | 1010.9 |
| 20260503194520 | 59 | 234 | 1.7 | 6.1 | 0.00 | 0.00 | 0.00 | 36 | 1010.9 |
| 20260503194038 | 58 | 325 | 0.0 | 7.0 | 0.00 | 0.00 | 0.00 | 37 | 1010.9 |
| 20260503193541 | 58 | 282 | 0.0 | 10.4 | 0.00 | 0.00 | 0.00 | 38 | 1011.0 |
| 20260503193057 | 58 | 217 | 4.3 | 8.7 | 0.00 | 0.00 | 0.00 | 37 | 1011.1 |
| 20260503192559 | 58 | 223 | 2.6 | 8.7 | 0.00 | 0.00 | 0.00 | 36 | 1011.0 |
| 20260503192101 | 58 | 249 | 1.7 | 8.7 | 0.00 | 0.00 | 0.00 | 37 | 1011.2 |
| 20260503191515 | 57 | 327 | 1.7 | 13.9 | 0.00 | 0.00 | 0.00 | 38 | 1011.1 |
| 20260503191033 | 57 | 217 | 3.5 | 13.9 | 0.00 | 0.00 | 0.00 | 36 | 1011.3 |
| 20260503190549 | 57 | 206 | 1.7 | 10.4 | 0.00 | 0.00 | 0.00 | 37 | 1011.3 |
| 20260503185605 | 57 | 231 | 2.6 | 8.7 | 0.00 | 0.00 | 0.00 | 36 | 1011.4 |
| 20260503185103 | 57 | 213 | 0.9 | 16.5 | 0.00 | 0.00 | 0.00 | 38 | 1011.4 |
| 20260503184519 | 57 | 217 | 2.6 | 15.6 | 0.00 | 0.00 | 0.00 | 39 | 1011.5 |
| 20260503184035 | 57 | 272 | 0.9 | 9.6 | 0.00 | 0.00 | 0.00 | 38 | 1011.4 |
| 20260503183551 | 56 | 285 | 0.9 | 6.1 | 0.00 | 0.00 | 0.00 | 39 | 1011.6 |
| 20260503183005 | 56 | 227 | 1.7 | 7.8 | 0.00 | 0.00 | 0.00 | 38 | 1011.7 |
| 20260503182522 | 57 | 218 | 1.7 | 7.8 | 0.00 | 0.00 | 0.00 | 38 | 1011.7 |
| 20260503182039 | 56 | 235 | 0.9 | 7.8 | 0.00 | 0.00 | 0.00 | 40 | 1011.7 |
| 20260503181558 | 56 | 221 | 1.7 | 11.3 | 0.00 | 0.00 | 0.00 | 41 | 1011.7 |
| 20260503181059 | 56 | 244 | 4.3 | 11.3 | 0.00 | 0.00 | 0.00 | 40 | 1011.8 |
| 20260503180606 | 56 | 302 | 0.0 | 6.1 | 0.00 | 0.00 | 0.00 | 41 | 1011.6 |
| 20260503180057 | 56 | 264 | 2.6 | 8.7 | 0.00 | 0.00 | 0.00 | 41 | 1011.8 |
| 20260503175557 | 55 | 235 | 2.6 | 11.3 | 0.00 | 0.00 | 0.00 | 43 | 1011.9 |